createdAt,value
2023-03-04T00:01:06.740Z,65.89
2023-03-04T00:03:36.910Z,65.70
2023-03-04T00:06:04.580Z,66.07
2023-03-04T00:08:36.297Z,66.00
2023-03-04T00:11:03.336Z,66.20
2023-03-04T00:13:31.035Z,65.91
2023-03-04T00:15:58.064Z,65.64
2023-03-04T00:18:25.793Z,65.37
2023-03-04T00:20:53.008Z,65.48
2023-03-04T00:23:20.031Z,65.33
2023-03-04T00:25:50.198Z,65.33
2023-03-04T00:28:18.689Z,65.13
2023-03-04T00:30:46.393Z,65.07
2023-03-04T00:33:13.237Z,65.29
2023-03-04T00:35:40.906Z,65.30
2023-03-04T00:38:08.947Z,65.05
2023-03-04T00:40:36.709Z,65.18
2023-03-04T00:43:05.236Z,65.16
2023-03-04T00:45:33.529Z,65.03
2023-03-04T00:48:06.216Z,65.11
2023-03-04T00:50:35.574Z,65.03
2023-03-04T00:53:02.870Z,65.13
2023-03-04T00:55:31.962Z,65.17
2023-03-04T00:57:59.149Z,64.99
2023-03-04T01:00:26.296Z,65.11
2023-03-04T01:02:54.512Z,65.06
2023-03-04T01:05:22.776Z,65.02
2023-03-04T01:07:50.585Z,65.18
2023-03-04T01:10:27.890Z,65.30
2023-03-04T01:12:55.089Z,65.39
2023-03-04T01:15:24.141Z,65.56
2023-03-04T01:17:54.483Z,65.70
2023-03-04T01:20:21.793Z,65.66
2023-03-04T01:22:48.720Z,65.93
2023-03-04T01:25:15.652Z,66.03
2023-03-04T01:27:43.559Z,66.28
2023-03-04T01:30:14.302Z,66.27
2023-03-04T01:32:42.870Z,66.51
2023-03-04T01:35:09.708Z,66.60
2023-03-04T01:37:36.547Z,66.74
2023-03-04T01:40:05.499Z,66.86
2023-03-04T01:42:33.780Z,67.20
2023-03-04T01:45:01.132Z,67.57
2023-03-04T01:47:29.557Z,67.59
2023-03-04T01:49:56.772Z,67.78
2023-03-04T01:52:25.374Z,67.74
2023-03-04T01:54:53.892Z,67.83
2023-03-04T01:57:22.569Z,67.83
2023-03-04T02:00:21.740Z,67.89
2023-03-04T02:02:50.650Z,68.03
2023-03-04T02:05:18.020Z,68.11
2023-03-04T02:07:44.797Z,68.46
2023-03-04T02:10:11.638Z,68.72
2023-03-04T02:12:41.244Z,68.95
2023-03-04T02:15:08.543Z,69.32
2023-03-04T02:17:41.746Z,69.67
2023-03-04T02:20:17.968Z,69.79
2023-03-04T02:22:52.214Z,70.07
2023-03-04T02:25:22.674Z,70.03
2023-03-04T02:27:49.643Z,70.15
2023-03-04T02:30:20.404Z,70.06
2023-03-04T02:32:47.611Z,70.07
2023-03-04T02:35:17.985Z,69.94
2023-03-04T02:37:45.385Z,70.09
2023-03-04T02:40:21.720Z,70.40
2023-03-04T02:42:48.712Z,70.45
2023-03-04T02:45:47.040Z,70.66
2023-03-04T02:48:20.176Z,71.01
2023-03-04T02:50:51.663Z,71.17
2023-03-04T02:53:20.285Z,71.27
2023-03-04T02:55:48.205Z,71.31
2023-03-04T02:58:18.180Z,71.22
2023-03-04T03:00:45.352Z,71.24
2023-03-04T03:03:12.545Z,71.20
2023-03-04T03:05:39.909Z,71.15
2023-03-04T03:08:07.460Z,71.33
2023-03-04T03:10:35.550Z,71.60
2023-03-04T03:13:03.443Z,71.72
2023-03-04T03:15:33.156Z,71.88
2023-03-04T03:18:00.742Z,72.42
2023-03-04T03:20:27.510Z,72.74
2023-03-04T03:22:54.545Z,72.99
2023-03-04T03:25:21.659Z,73.35
2023-03-04T03:27:50.734Z,73.41
2023-03-04T03:30:17.860Z,73.54
2023-03-04T03:32:44.810Z,73.58
2023-03-04T03:35:11.552Z,73.49
2023-03-04T03:37:39.061Z,73.59
2023-03-04T03:40:06.427Z,73.60
2023-03-04T03:42:35.047Z,73.66
2023-03-04T03:45:03.263Z,73.86
2023-03-04T03:47:30.767Z,74.08
2023-03-04T03:49:57.507Z,74.25
2023-03-04T03:52:25.224Z,74.40
2023-03-04T03:54:51.926Z,74.54
2023-03-04T03:57:18.742Z,74.67
2023-03-04T03:59:45.755Z,74.74
2023-03-04T04:02:22.610Z,74.72
2023-03-04T04:04:52.813Z,74.74
2023-03-04T04:08:18.623Z,74.61
2023-03-04T04:10:47.581Z,74.67
2023-03-04T04:13:16.979Z,74.75
2023-03-04T04:15:56.189Z,75.04
2023-03-04T04:18:26.412Z,75.16
2023-03-04T04:20:58.297Z,75.50
2023-03-04T04:23:27.373Z,75.68
2023-03-04T04:25:56.271Z,75.74
2023-03-04T04:28:24.902Z,75.69
2023-03-04T04:30:53.811Z,75.67
2023-03-04T04:33:22.643Z,75.63
2023-03-04T04:35:50.950Z,75.59
2023-03-04T04:38:19.286Z,75.55
2023-03-04T04:40:47.886Z,75.51
2023-03-04T04:43:16.540Z,75.63
2023-03-04T04:45:45.251Z,75.79
2023-03-04T04:48:13.917Z,75.95
2023-03-04T04:50:42.200Z,76.26
2023-03-04T04:53:14.278Z,76.21
2023-03-04T04:55:42.680Z,76.38
2023-03-04T04:58:13.206Z,76.32
2023-03-04T05:00:41.402Z,76.21
2023-03-04T05:03:18.149Z,76.06
2023-03-04T05:05:47.399Z,75.91
2023-03-04T05:08:24.350Z,75.69
2023-03-04T05:10:57.149Z,75.60
2023-03-04T05:13:26.548Z,75.61
2023-03-04T05:15:56.974Z,75.67
2023-03-04T05:18:25.908Z,75.85
2023-03-04T05:21:02.107Z,76.36
2023-03-04T05:23:33.951Z,76.13
2023-03-04T05:26:03.070Z,75.54
2023-03-04T05:28:31.629Z,74.79
2023-03-04T05:31:00.454Z,73.47
2023-03-04T05:33:28.966Z,72.66
2023-03-04T05:35:57.307Z,71.72
2023-03-04T05:38:26.213Z,70.15
2023-03-04T05:40:59.388Z,68.80
2023-03-04T05:43:28.360Z,68.00
2023-03-04T05:45:59.292Z,67.34
2023-03-04T05:48:29.197Z,66.16
2023-03-04T05:50:58.159Z,65.03
2023-03-04T05:53:26.594Z,63.67
2023-03-04T05:55:55.401Z,62.27
2023-03-04T05:58:24.127Z,61.38
2023-03-04T06:00:52.434Z,60.15
2023-03-04T06:03:22.554Z,59.04
2023-03-04T06:05:50.887Z,58.07
2023-03-04T06:08:21.481Z,57.08
2023-03-04T06:10:52.478Z,55.78
2023-03-04T06:13:27.194Z,54.23
2023-03-04T06:15:58.562Z,52.57
2023-03-04T06:18:27.552Z,52.05
2023-03-04T06:21:01.230Z,51.19
2023-03-04T06:23:30.302Z,50.27
2023-03-04T06:25:59.619Z,49.12
2023-03-04T06:28:28.109Z,48.21
2023-03-04T06:30:56.783Z,47.54
2023-03-04T06:33:32.645Z,46.86
2023-03-04T06:36:01.477Z,46.16
2023-03-04T06:38:29.944Z,45.91
2023-03-04T06:41:06.529Z,45.43
2023-03-04T06:43:35.349Z,44.68
2023-03-04T06:46:09.848Z,44.13
2023-03-04T06:48:39.596Z,43.75
2023-03-04T06:51:09.467Z,43.21
2023-03-04T06:53:39.556Z,42.89
2023-03-04T06:56:16.316Z,43.09
2023-03-04T06:58:47.973Z,43.84
2023-03-04T07:01:21.420Z,44.67
2023-03-04T07:03:50.351Z,45.48
2023-03-04T07:06:21.213Z,46.15
2023-03-04T07:08:56.207Z,47.00
2023-03-04T07:11:25.483Z,47.71
2023-03-04T07:13:54.446Z,48.16
2023-03-04T07:16:24.121Z,48.96
2023-03-04T07:18:52.866Z,49.99
2023-03-04T07:21:27.192Z,50.56
2023-03-04T07:23:55.397Z,51.33
2023-03-04T07:26:24.207Z,52.05
2023-03-04T07:28:57.432Z,52.90
2023-03-04T07:31:30.260Z,53.53
2023-03-04T07:34:03.984Z,52.89
2023-03-04T07:36:33.822Z,51.94
2023-03-04T07:39:02.331Z,50.69
2023-03-04T07:41:31.798Z,49.57
2023-03-04T07:44:00.220Z,48.22
2023-03-04T07:46:28.611Z,47.08
2023-03-04T07:48:58.112Z,46.01
2023-03-04T07:51:33.155Z,44.80
2023-03-04T07:54:02.923Z,44.04
2023-03-04T07:56:33.631Z,43.33
2023-03-04T07:59:03.594Z,41.69
2023-03-04T08:01:37.259Z,40.70
2023-03-04T08:04:06.835Z,39.72
2023-03-04T08:06:36.489Z,39.22
2023-03-04T08:09:09.244Z,38.43
2023-03-04T08:11:38.349Z,38.18
2023-03-04T08:14:07.481Z,37.57
2023-03-04T08:16:36.048Z,36.68
2023-03-04T08:19:05.787Z,36.47
2023-03-04T08:21:34.105Z,36.19
2023-03-04T08:24:08.442Z,35.54
2023-03-04T08:26:42.279Z,35.35
2023-03-04T08:29:15.722Z,35.67
2023-03-04T08:31:48.670Z,35.65
2023-03-04T08:34:18.504Z,35.39
2023-03-04T08:36:52.769Z,35.38
2023-03-04T08:39:21.194Z,35.12
2023-03-04T08:41:49.652Z,35.03
2023-03-04T08:44:17.950Z,35.30
2023-03-04T08:46:46.823Z,35.55
2023-03-04T08:49:18.416Z,35.57
2023-03-04T08:51:46.602Z,35.78
2023-03-04T08:54:14.884Z,36.17
2023-03-04T08:56:45.219Z,36.50
2023-03-04T08:59:13.392Z,36.60
2023-03-04T09:01:41.754Z,36.70
2023-03-04T09:04:11.408Z,36.71
2023-03-04T09:06:44.578Z,36.46
2023-03-04T09:09:14.054Z,36.43
2023-03-04T09:11:42.250Z,36.41
2023-03-04T09:14:14.576Z,36.62
2023-03-04T09:16:42.967Z,36.41
2023-03-04T09:19:11.090Z,36.05
2023-03-04T09:21:40.852Z,36.00
2023-03-04T09:24:09.145Z,36.56
2023-03-04T09:26:37.586Z,36.84
2023-03-04T09:29:07.375Z,36.22
2023-03-04T09:31:36.177Z,36.12
2023-03-04T09:34:06.746Z,35.75
2023-03-04T09:36:34.929Z,35.28
2023-03-04T09:39:07.433Z,35.28
2023-03-04T09:41:47.562Z,35.19
2023-03-04T09:44:19.169Z,34.97
2023-03-04T09:46:47.464Z,35.41
2023-03-04T09:49:15.967Z,35.38
2023-03-04T09:51:59.723Z,35.15
2023-03-04T09:55:04.994Z,35.10
2023-03-04T09:59:12.896Z,35.56
2023-03-04T10:01:49.475Z,34.74
2023-03-04T10:04:30.860Z,34.16
2023-03-04T10:07:23.376Z,34.27
2023-03-04T10:10:00.406Z,34.30
2023-03-04T10:12:29.993Z,34.26
2023-03-04T10:15:06.999Z,34.12
2023-03-04T10:17:44.730Z,33.47
2023-03-04T10:20:29.645Z,32.62
2023-03-04T10:22:59.415Z,33.07
2023-03-04T10:25:29.044Z,33.31
2023-03-04T10:28:02.832Z,33.68
2023-03-04T10:30:30.227Z,33.49
2023-03-04T10:32:57.789Z,32.86
2023-03-04T10:35:27.401Z,32.89
2023-03-04T10:37:55.049Z,32.59
2023-03-04T10:40:25.187Z,32.55
2023-03-04T10:42:51.992Z,32.88
2023-03-04T10:45:30.261Z,33.22
2023-03-04T10:47:58.373Z,32.56
2023-03-04T10:50:27.423Z,32.92
2023-03-04T10:52:55.490Z,33.84
2023-03-04T10:55:28.599Z,34.30
2023-03-04T10:58:05.798Z,35.08
2023-03-04T11:00:34.179Z,35.19
2023-03-04T11:03:31.286Z,34.54
2023-03-04T11:06:18.427Z,34.33
2023-03-04T11:08:59.123Z,35.08
2023-03-04T11:11:38.363Z,35.62
2023-03-04T11:14:35.598Z,35.06
2023-03-04T11:17:26.530Z,35.29
2023-03-04T11:20:10.424Z,35.90
2023-03-04T11:22:39.479Z,35.96
2023-03-04T11:25:10.603Z,35.93
2023-03-04T11:27:51.065Z,36.19
2023-03-04T11:30:30.295Z,36.33
2023-03-04T11:33:04.236Z,36.72
2023-03-04T11:35:39.731Z,37.03
2023-03-04T11:38:23.154Z,37.82
2023-03-04T11:40:58.802Z,37.74
2023-03-04T11:43:45.149Z,37.74
2023-03-04T11:46:35.445Z,37.61
2023-03-04T11:49:38.724Z,38.50
2023-03-04T11:52:21.766Z,38.44
2023-03-04T11:55:27.461Z,38.97
2023-03-04T11:58:26.587Z,39.41
2023-03-04T12:01:23.416Z,39.34
2023-03-04T12:04:04.503Z,39.55
2023-03-04T12:06:56.075Z,39.49
2023-03-04T12:09:39.327Z,39.40
2023-03-04T12:12:44.173Z,39.54
2023-03-04T12:15:19.384Z,39.58
2023-03-04T12:18:06.850Z,40.00
2023-03-04T12:20:46.925Z,40.40
2023-03-04T12:23:13.813Z,40.65
2023-03-04T12:25:45.088Z,40.43
2023-03-04T12:28:31.395Z,40.41
2023-03-04T12:31:10.781Z,40.86
2023-03-04T12:34:07.455Z,41.18
2023-03-04T12:36:52.051Z,41.47
2023-03-04T12:39:27.361Z,41.93
2023-03-04T12:42:31.364Z,42.20
2023-03-04T12:45:19.708Z,42.45
2023-03-04T12:47:56.030Z,43.27
2023-03-04T12:50:49.752Z,43.44
2023-03-04T12:53:19.781Z,43.52
2023-03-04T12:55:47.097Z,43.32
2023-03-04T12:58:22.156Z,43.24
2023-03-04T13:00:55.384Z,43.13
2023-03-04T13:03:35.568Z,43.35
2023-03-04T13:06:22.201Z,43.79
2023-03-04T13:08:59.613Z,43.79
2023-03-04T13:11:38.947Z,43.06
2023-03-04T13:14:16.917Z,43.10
2023-03-04T13:16:54.001Z,43.46
2023-03-04T13:19:47.735Z,43.40
2023-03-04T13:22:38.822Z,42.63
2023-03-04T13:25:48.080Z,42.74
2023-03-04T13:28:20.118Z,43.30
2023-03-04T13:30:56.952Z,43.44
2023-03-04T13:33:24.137Z,43.55
2023-03-04T13:36:01.428Z,43.27
2023-03-04T13:38:30.398Z,43.03
2023-03-04T13:41:13.558Z,42.97
2023-03-04T13:43:45.204Z,42.90
2023-03-04T13:46:18.762Z,43.09
2023-03-04T13:48:49.550Z,42.89
2023-03-04T13:51:29.608Z,42.89
2023-03-04T13:54:02.247Z,43.22
2023-03-04T13:56:37.488Z,43.36
2023-03-04T13:59:06.477Z,43.37
2023-03-04T14:01:35.744Z,43.44
2023-03-04T14:04:35.661Z,43.70
2023-03-04T14:07:26.663Z,43.70
2023-03-04T14:10:13.568Z,43.42
2023-03-04T14:13:00.802Z,43.37
2023-03-04T14:15:30.575Z,43.73
2023-03-04T14:18:01.134Z,44.29
2023-03-04T14:20:35.102Z,44.75
2023-03-04T14:23:21.971Z,44.49
2023-03-04T14:25:48.845Z,44.42
2023-03-04T14:28:17.701Z,44.72
2023-03-04T14:30:54.983Z,44.75
2023-03-04T14:33:28.136Z,44.89
2023-03-04T14:36:00.438Z,44.69
2023-03-04T14:38:34.744Z,45.04
2023-03-04T14:41:24.792Z,45.06
2023-03-04T14:43:57.564Z,45.80
2023-03-04T14:46:25.594Z,46.28
2023-03-04T14:48:56.286Z,46.65
2023-03-04T14:51:50.677Z,46.65
2023-03-04T14:54:41.057Z,46.73
2023-03-04T14:57:23.254Z,46.89
2023-03-04T14:59:51.618Z,47.16
2023-03-04T15:02:20.356Z,47.40
2023-03-04T15:04:48.286Z,47.48
2023-03-04T15:07:20.067Z,47.38
2023-03-04T15:09:50.437Z,47.52
2023-03-04T15:12:24.174Z,47.50
2023-03-04T15:14:54.098Z,47.58
2023-03-04T15:17:39.318Z,47.91
2023-03-04T15:20:07.526Z,48.22
2023-03-04T15:22:39.600Z,48.41
2023-03-04T15:25:08.611Z,48.42
2023-03-04T15:27:36.650Z,48.67
2023-03-04T15:30:09.615Z,48.92
2023-03-04T15:32:39.654Z,49.00
2023-03-04T15:35:09.389Z,49.14
2023-03-04T15:37:38.993Z,49.33
2023-03-04T15:40:16.716Z,49.73
2023-03-04T15:42:43.717Z,49.89
2023-03-04T15:45:24.048Z,50.04
2023-03-04T15:47:54.092Z,50.36
2023-03-04T15:50:22.540Z,50.39
2023-03-04T15:53:04.639Z,50.68
2023-03-04T15:55:31.960Z,50.94
2023-03-04T15:58:01.097Z,51.16
2023-03-04T16:00:28.332Z,51.17
2023-03-04T16:02:55.864Z,51.59
2023-03-04T16:05:25.884Z,51.54
2023-03-04T16:07:58.384Z,51.77
2023-03-04T16:10:31.686Z,52.22
2023-03-04T16:12:59.049Z,52.34
2023-03-04T16:15:29.387Z,52.46
2023-03-04T16:17:57.395Z,52.60
2023-03-04T16:20:28.158Z,52.77
2023-03-04T16:25:19.139Z,52.92
2023-03-04T16:27:51.112Z,52.91
2023-03-04T16:30:24.725Z,52.94
2023-03-04T16:33:07.313Z,53.03
2023-03-04T16:35:39.466Z,53.21
2023-03-04T16:38:33.418Z,53.42
2023-03-04T16:41:14.719Z,53.35
2023-03-04T16:43:44.658Z,53.51
2023-03-04T16:46:13.136Z,53.51
2023-03-04T16:48:42.021Z,53.49
2023-03-04T16:51:20.970Z,53.58
2023-03-04T16:53:55.112Z,53.91
2023-03-04T16:56:24.003Z,53.87
2023-03-04T16:58:54.319Z,53.98
2023-03-04T17:01:27.903Z,54.10
2023-03-04T17:03:56.808Z,54.07
2023-03-04T17:06:30.483Z,54.12
2023-03-04T17:09:24.406Z,54.47
2023-03-04T17:11:59.794Z,54.42
2023-03-04T17:14:29.512Z,54.60
2023-03-04T17:16:58.465Z,54.66
2023-03-04T17:19:27.752Z,54.87
2023-03-04T17:21:58.057Z,55.03
2023-03-04T17:24:26.631Z,55.24
2023-03-04T17:26:57.975Z,55.40
2023-03-04T17:29:29.144Z,55.33
2023-03-04T17:32:00.799Z,55.48
2023-03-04T17:34:32.217Z,55.69
2023-03-04T17:37:02.355Z,55.68
2023-03-04T17:39:32.467Z,55.98
2023-03-04T17:42:03.002Z,56.07
2023-03-04T17:44:38.053Z,56.03
2023-03-04T17:47:10.787Z,56.20
2023-03-04T17:49:43.625Z,56.65
2023-03-04T17:52:15.314Z,56.91
2023-03-04T17:54:48.364Z,57.15
2023-03-04T17:57:22.078Z,57.53
2023-03-04T17:59:56.581Z,57.82
2023-03-04T18:02:29.457Z,58.13
2023-03-04T18:05:08.890Z,58.34
2023-03-04T18:07:42.885Z,58.41
2023-03-04T18:10:25.725Z,58.81
2023-03-04T18:12:58.064Z,59.29
2023-03-04T18:15:33.191Z,59.36
2023-03-04T18:18:06.398Z,59.73
2023-03-04T18:20:43.883Z,60.11
2023-03-04T18:23:21.506Z,60.21
2023-03-04T18:25:51.345Z,60.45
2023-03-04T18:28:27.308Z,60.65
2023-03-04T18:31:00.562Z,60.85
2023-03-04T18:33:39.259Z,61.20
2023-03-04T18:36:09.850Z,61.41
2023-03-04T18:38:46.399Z,61.47
2023-03-04T18:41:20.129Z,61.79
2023-03-04T18:43:59.421Z,61.83
2023-03-04T18:46:38.909Z,62.09
2023-03-04T18:49:16.813Z,62.51
2023-03-04T18:51:53.946Z,62.68
2023-03-04T18:54:30.386Z,62.93
2023-03-04T18:57:05.797Z,63.14
2023-03-04T18:59:43.761Z,63.09
2023-03-04T19:02:47.129Z,63.34
2023-03-04T19:05:27.536Z,63.63
2023-03-04T19:08:02.280Z,63.75
2023-03-04T19:10:37.509Z,63.96
2023-03-04T19:13:17.904Z,64.10
2023-03-04T19:16:05.944Z,64.13
2023-03-04T19:18:38.849Z,64.33
2023-03-04T19:21:10.582Z,64.39
2023-03-04T19:23:50.446Z,64.46
2023-03-04T19:33:45.618Z,65.39
2023-03-04T19:36:28.533Z,65.64
2023-03-04T19:39:04.798Z,65.90
2023-03-04T19:41:38.367Z,66.18
2023-03-04T19:44:08.295Z,66.46
2023-03-04T19:46:40.776Z,66.87
2023-03-04T19:49:12.176Z,66.89
2023-03-04T19:51:45.205Z,66.99
2023-03-04T19:54:16.311Z,67.15
2023-03-04T19:56:48.526Z,67.16
2023-03-04T19:59:17.154Z,67.38
2023-03-04T20:01:55.763Z,67.86
2023-03-04T20:04:24.388Z,68.12
2023-03-04T20:06:56.305Z,68.35
2023-03-04T20:09:36.383Z,68.58
2023-03-04T20:12:05.380Z,68.79
2023-03-04T20:14:37.802Z,69.27
2023-03-04T20:17:08.205Z,69.35
2023-03-04T20:19:41.678Z,69.52
2023-03-04T20:22:13.986Z,69.57
2023-03-04T20:24:42.805Z,69.70
2023-03-04T20:27:19.178Z,69.74
2023-03-04T20:29:50.338Z,69.87
2023-03-04T20:32:18.701Z,70.15
2023-03-04T20:34:54.134Z,70.43
2023-03-04T20:37:26.312Z,70.51
2023-03-04T20:39:58.349Z,70.79
2023-03-04T20:42:27.584Z,70.90
2023-03-04T20:45:00.102Z,71.02
2023-03-04T20:47:29.626Z,71.19
2023-03-04T20:49:59.054Z,71.22
2023-03-04T20:52:27.597Z,71.28
2023-03-04T20:54:56.587Z,71.64
2023-03-04T20:57:24.755Z,71.79
2023-03-04T20:59:58.048Z,72.10
2023-03-04T21:02:31.162Z,72.26
2023-03-04T21:05:01.572Z,72.66
2023-03-04T21:07:30.966Z,72.83
2023-03-04T21:10:04.982Z,72.98
2023-03-04T21:12:33.736Z,73.26
2023-03-04T21:15:09.648Z,73.30
2023-03-04T21:17:40.471Z,73.32
2023-03-04T21:20:10.719Z,73.47
2023-03-04T21:22:40.997Z,73.77
2023-03-04T21:25:12.438Z,73.99
2023-03-04T21:27:43.367Z,74.32
2023-03-04T21:30:16.643Z,74.61
2023-03-04T21:32:50.484Z,74.87
2023-03-04T21:35:25.118Z,75.33
2023-03-04T21:38:22.031Z,75.35
2023-03-04T21:43:33.667Z,75.66
2023-03-04T21:46:01.980Z,75.58
2023-03-04T21:48:36.462Z,75.67
2023-03-04T21:51:08.295Z,75.87
2023-03-04T21:53:37.540Z,76.00
2023-03-04T21:56:05.788Z,76.22
2023-03-04T21:58:35.485Z,76.46
2023-03-04T22:01:17.176Z,76.52
2023-03-04T22:03:51.637Z,76.62
2023-03-04T22:06:24.537Z,76.78
2023-03-04T22:08:56.085Z,76.81
2023-03-04T22:11:24.853Z,76.85
2023-03-04T22:13:54.261Z,76.92
2023-03-04T22:16:22.753Z,77.03
2023-03-04T22:18:51.384Z,76.98
2023-03-04T22:21:20.202Z,77.02
2023-03-04T22:23:49.569Z,77.16
2023-03-04T22:26:30.193Z,77.44
2023-03-04T22:29:01.529Z,77.53
2023-03-04T22:31:32.034Z,77.59
2023-03-04T22:34:16.598Z,77.85
2023-03-04T22:36:46.776Z,77.74
2023-03-04T22:39:16.305Z,77.90
2023-03-04T22:41:46.018Z,77.96
2023-03-04T22:44:14.436Z,78.03
2023-03-04T22:46:43.783Z,78.32
2023-03-04T22:49:12.515Z,78.67
2023-03-04T22:51:42.023Z,78.97
2023-03-04T22:54:17.337Z,79.12
2023-03-04T22:56:45.963Z,79.36
2023-03-04T22:59:14.140Z,79.46
2023-03-04T23:01:42.918Z,79.45
2023-03-04T23:04:11.855Z,79.68
2023-03-04T23:06:40.494Z,79.88
2023-03-04T23:09:13.131Z,79.91
2023-03-04T23:11:42.579Z,79.73
2023-03-04T23:14:11.985Z,79.83
2023-03-04T23:16:44.631Z,79.70
2023-03-04T23:19:24.166Z,79.79
2023-03-04T23:21:57.380Z,79.66
2023-03-04T23:24:26.713Z,79.64
2023-03-04T23:26:54.899Z,79.50
2023-03-04T23:29:23.245Z,79.33
2023-03-04T23:31:51.839Z,79.19
2023-03-04T23:34:20.366Z,79.00
2023-03-04T23:36:49.115Z,78.86
2023-03-04T23:39:17.511Z,78.42
2023-03-04T23:43:23.069Z,78.34
2023-03-04T23:45:54.340Z,77.93
2023-03-04T23:48:22.591Z,77.71
2023-03-04T23:50:51.368Z,77.31
2023-03-04T23:53:20.496Z,77.18
2023-03-04T23:55:50.345Z,76.83
2023-03-04T23:58:17.840Z,76.75
